sensor_id;sensor_type;location;lat;lon;timestamp;pressure;altitude;pressure_sealevel;temperature;humidity
72428;BME280;60419;48.880;18.036;2023-05-11T00:00:40;99122.78;;;10.73;59.07
72428;BME280;60419;48.880;18.036;2023-05-11T00:03:25;99127.75;;;10.16;60.59
72428;BME280;60419;48.880;18.036;2023-05-11T00:06:11;99133.28;;;10.75;59.22
72428;BME280;60419;48.880;18.036;2023-05-11T00:08:56;99132.16;;;10.90;58.62
72428;BME280;60419;48.880;18.036;2023-05-11T00:11:42;99129.13;;;10.55;60.01
72428;BME280;60419;48.880;18.036;2023-05-11T00:14:27;99134.69;;;10.72;59.37
72428;BME280;60419;48.880;18.036;2023-05-11T00:17:13;99127.84;;;10.52;60.12
72428;BME280;60419;48.880;18.036;2023-05-11T00:19:58;99129.94;;;10.28;60.92
72428;BME280;60419;48.880;18.036;2023-05-11T00:22:43;99128.13;;;10.23;60.71
72428;BME280;60419;48.880;18.036;2023-05-11T00:25:29;99124.03;;;9.84;61.72
72428;BME280;60419;48.880;18.036;2023-05-11T00:28:14;99127.31;;;9.81;62.43
72428;BME280;60419;48.880;18.036;2023-05-11T00:31:00;99126.63;;;9.89;62.17
72428;BME280;60419;48.880;18.036;2023-05-11T00:33:45;99124.75;;;9.90;62.51
72428;BME280;60419;48.880;18.036;2023-05-11T00:36:30;99126.81;;;9.79;62.39
72428;BME280;60419;48.880;18.036;2023-05-11T00:39:17;99121.28;;;9.43;64.14
72428;BME280;60419;48.880;18.036;2023-05-11T00:42:02;99119.84;;;9.78;62.50
72428;BME280;60419;48.880;18.036;2023-05-11T00:44:48;99120.13;;;9.77;63.04
72428;BME280;60419;48.880;18.036;2023-05-11T00:47:33;99116.03;;;9.79;62.36
72428;BME280;60419;48.880;18.036;2023-05-11T00:50:19;99122.63;;;9.73;63.33
72428;BME280;60419;48.880;18.036;2023-05-11T00:53:05;99113.91;;;9.62;63.70
72428;BME280;60419;48.880;18.036;2023-05-11T00:55:51;99115.03;;;9.75;62.98
72428;BME280;60419;48.880;18.036;2023-05-11T00:58:36;99125.63;;;9.71;63.34
72428;BME280;60419;48.880;18.036;2023-05-11T01:01:22;99119.28;;;9.48;64.29
72428;BME280;60419;48.880;18.036;2023-05-11T01:04:08;99124.53;;;9.40;63.98
72428;BME280;60419;48.880;18.036;2023-05-11T01:13:16;99124.78;;;9.05;66.10
72428;BME280;60419;48.880;18.036;2023-05-11T01:16:07;99125.03;;;9.28;65.46
72428;BME280;60419;48.880;18.036;2023-05-11T01:19:57;99119.75;;;9.37;64.63
72428;BME280;60419;48.880;18.036;2023-05-11T01:22:30;99130.94;;;9.30;64.69
72428;BME280;60419;48.880;18.036;2023-05-11T01:31:57;99129.25;;;10.08;62.23
72428;BME280;60419;48.880;18.036;2023-05-11T01:34:44;99128.44;;;9.66;63.20
72428;BME280;60419;48.880;18.036;2023-05-11T01:37:31;99134.16;;;9.46;63.72
72428;BME280;60419;48.880;18.036;2023-05-11T01:40:20;99129.03;;;9.77;63.62
72428;BME280;60419;48.880;18.036;2023-05-11T01:43:11;99135.53;;;10.45;61.07
72428;BME280;60419;48.880;18.036;2023-05-11T01:45:59;99134.84;;;10.39;61.04
72428;BME280;60419;48.880;18.036;2023-05-11T01:48:47;99119.66;;;10.30;60.79
72428;BME280;60419;48.880;18.036;2023-05-11T01:51:35;99134.81;;;9.84;63.32
72428;BME280;60419;48.880;18.036;2023-05-11T01:54:22;99129.84;;;9.91;62.98
72428;BME280;60419;48.880;18.036;2023-05-11T01:57:10;99093.31;;;9.52;63.33
72428;BME280;60419;48.880;18.036;2023-05-11T01:59:58;99118.88;;;9.55;63.90
72428;BME280;60419;48.880;18.036;2023-05-11T02:02:44;99136.22;;;9.16;65.19
72428;BME280;60419;48.880;18.036;2023-05-11T02:05:32;99127.31;;;9.35;64.19
72428;BME280;60419;48.880;18.036;2023-05-11T02:08:19;99101.38;;;9.85;62.81
72428;BME280;60419;48.880;18.036;2023-05-11T02:11:06;99104.66;;;10.24;61.37
72428;BME280;60419;48.880;18.036;2023-05-11T02:13:54;99132.44;;;10.10;62.16
72428;BME280;60419;48.880;18.036;2023-05-11T02:16:41;99113.56;;;9.83;63.63
72428;BME280;60419;48.880;18.036;2023-05-11T02:19:31;99131.66;;;9.96;62.77
72428;BME280;60419;48.880;18.036;2023-05-11T02:22:18;99111.75;;;9.13;65.21
72428;BME280;60419;48.880;18.036;2023-05-11T02:25:06;99124.94;;;9.14;66.17
72428;BME280;60419;48.880;18.036;2023-05-11T02:27:52;99120.63;;;9.32;65.13
72428;BME280;60419;48.880;18.036;2023-05-11T02:30:45;99121.13;;;9.67;64.78
72428;BME280;60419;48.880;18.036;2023-05-11T02:33:34;99119.06;;;10.19;62.46
72428;BME280;60419;48.880;18.036;2023-05-11T02:36:21;99124.03;;;10.26;61.49
72428;BME280;60419;48.880;18.036;2023-05-11T02:39:08;99106.72;;;10.41;61.28
72428;BME280;60419;48.880;18.036;2023-05-11T02:42:00;99110.50;;;10.53;60.97
72428;BME280;60419;48.880;18.036;2023-05-11T02:45:00;99130.06;;;9.95;62.53
72428;BME280;60419;48.880;18.036;2023-05-11T02:47:51;99125.47;;;9.95;62.71
72428;BME280;60419;48.880;18.036;2023-05-11T02:50:39;99126.78;;;10.62;60.55
72428;BME280;60419;48.880;18.036;2023-05-11T02:53:27;99124.94;;;10.35;61.24
72428;BME280;60419;48.880;18.036;2023-05-11T02:56:13;99126.34;;;10.05;62.82
72428;BME280;60419;48.880;18.036;2023-05-11T02:58:59;99129.06;;;10.19;63.00
72428;BME280;60419;48.880;18.036;2023-05-11T03:01:44;99121.34;;;9.84;63.45
72428;BME280;60419;48.880;18.036;2023-05-11T03:04:30;99122.28;;;9.47;65.15
72428;BME280;60419;48.880;18.036;2023-05-11T03:07:15;99123.50;;;9.55;65.51
72428;BME280;60419;48.880;18.036;2023-05-11T03:10:02;99122.06;;;9.43;66.06
72428;BME280;60419;48.880;18.036;2023-05-11T03:12:47;99120.16;;;9.30;66.33
72428;BME280;60419;48.880;18.036;2023-05-11T03:15:33;99112.34;;;9.28;66.53
72428;BME280;60419;48.880;18.036;2023-05-11T03:18:20;99123.13;;;9.28;66.79
72428;BME280;60419;48.880;18.036;2023-05-11T03:21:06;99122.16;;;9.99;64.48
72428;BME280;60419;48.880;18.036;2023-05-11T03:23:52;99118.06;;;10.15;63.86
72428;BME280;60419;48.880;18.036;2023-05-11T03:26:40;99116.41;;;10.42;62.63
72428;BME280;60419;48.880;18.036;2023-05-11T03:29:27;99113.94;;;10.81;61.41
72428;BME280;60419;48.880;18.036;2023-05-11T03:32:13;99118.06;;;10.65;62.00
72428;BME280;60419;48.880;18.036;2023-05-11T03:34:58;99119.66;;;10.02;64.47
72428;BME280;60419;48.880;18.036;2023-05-11T03:37:44;99120.84;;;10.10;63.15
72428;BME280;60419;48.880;18.036;2023-05-11T03:40:32;99120.81;;;10.51;62.52
72428;BME280;60419;48.880;18.036;2023-05-11T03:43:19;99118.06;;;9.87;64.29
72428;BME280;60419;48.880;18.036;2023-05-11T03:46:07;99121.44;;;10.21;63.47
72428;BME280;60419;48.880;18.036;2023-05-11T03:48:53;99105.72;;;10.36;63.17
72428;BME280;60419;48.880;18.036;2023-05-11T03:51:38;99091.50;;;10.58;61.83
72428;BME280;60419;48.880;18.036;2023-05-11T03:54:25;99119.25;;;10.73;61.99
72428;BME280;60419;48.880;18.036;2023-05-11T03:57:10;99070.75;;;10.17;63.25
72428;BME280;60419;48.880;18.036;2023-05-11T03:59:56;99128.66;;;10.11;64.37
72428;BME280;60419;48.880;18.036;2023-05-11T04:02:41;99123.72;;;10.41;63.34
72428;BME280;60419;48.880;18.036;2023-05-11T04:05:27;99115.19;;;10.61;61.69
72428;BME280;60419;48.880;18.036;2023-05-11T04:08:12;99116.75;;;10.40;63.05
72428;BME280;60419;48.880;18.036;2023-05-11T04:10:58;99118.03;;;10.43;62.75
72428;BME280;60419;48.880;18.036;2023-05-11T04:13:44;99123.34;;;10.34;63.66
72428;BME280;60419;48.880;18.036;2023-05-11T04:16:29;99115.47;;;10.24;64.17
72428;BME280;60419;48.880;18.036;2023-05-11T04:19:14;99131.19;;;10.72;62.51
72428;BME280;60419;48.880;18.036;2023-05-11T04:22:00;99127.22;;;10.42;64.30
72428;BME280;60419;48.880;18.036;2023-05-11T04:24:46;99127.56;;;10.76;63.29
72428;BME280;60419;48.880;18.036;2023-05-11T04:27:32;99128.88;;;11.15;61.00
72428;BME280;60419;48.880;18.036;2023-05-11T04:30:18;99125.91;;;11.03;62.47
72428;BME280;60419;48.880;18.036;2023-05-11T04:33:05;99126.09;;;11.07;61.41
72428;BME280;60419;48.880;18.036;2023-05-11T04:35:54;99124.81;;;11.26;59.45
72428;BME280;60419;48.880;18.036;2023-05-11T04:38:39;99123.22;;;11.03;60.18
72428;BME280;60419;48.880;18.036;2023-05-11T04:41:24;99133.63;;;10.96;60.55
72428;BME280;60419;48.880;18.036;2023-05-11T04:44:10;99132.88;;;10.68;61.33
72428;BME280;60419;48.880;18.036;2023-05-11T04:46:56;99123.94;;;11.62;62.61
72428;BME280;60419;48.880;18.036;2023-05-11T04:49:42;99115.00;;;11.93;58.37
72428;BME280;60419;48.880;18.036;2023-05-11T04:52:28;99113.69;;;11.06;59.35
72428;BME280;60419;48.880;18.036;2023-05-11T04:55:13;99120.94;;;10.32;61.13
72428;BME280;60419;48.880;18.036;2023-05-11T04:57:59;99116.06;;;10.34;60.71
72428;BME280;60419;48.880;18.036;2023-05-11T05:00:44;99133.78;;;10.77;60.23
72428;BME280;60419;48.880;18.036;2023-05-11T05:03:29;99129.00;;;11.10;60.57
72428;BME280;60419;48.880;18.036;2023-05-11T05:06:15;99105.00;;;11.17;62.14
72428;BME280;60419;48.880;18.036;2023-05-11T05:09:00;99135.84;;;10.94;64.53
72428;BME280;60419;48.880;18.036;2023-05-11T05:11:46;99128.75;;;11.74;61.28
72428;BME280;60419;48.880;18.036;2023-05-11T05:14:31;99142.47;;;11.46;62.29
72428;BME280;60419;48.880;18.036;2023-05-11T05:17:16;99137.53;;;11.80;61.76
72428;BME280;60419;48.880;18.036;2023-05-11T05:20:03;99147.50;;;11.93;61.51
72428;BME280;60419;48.880;18.036;2023-05-11T05:22:48;99141.91;;;11.98;59.90
72428;BME280;60419;48.880;18.036;2023-05-11T05:25:34;99146.59;;;12.55;59.21
72428;BME280;60419;48.880;18.036;2023-05-11T05:28:19;99142.78;;;12.16;56.49
72428;BME280;60419;48.880;18.036;2023-05-11T05:31:04;99138.22;;;11.32;58.80
72428;BME280;60419;48.880;18.036;2023-05-11T05:33:50;99151.72;;;11.32;58.00
72428;BME280;60419;48.880;18.036;2023-05-11T05:36:35;99147.66;;;11.43;57.17
72428;BME280;60419;48.880;18.036;2023-05-11T05:39:21;99149.25;;;11.66;56.04
72428;BME280;60419;48.880;18.036;2023-05-11T05:42:06;99144.72;;;11.84;55.24
72428;BME280;60419;48.880;18.036;2023-05-11T05:44:51;99144.81;;;12.02;54.25
72428;BME280;60419;48.880;18.036;2023-05-11T05:47:37;99145.63;;;11.71;55.12
72428;BME280;60419;48.880;18.036;2023-05-11T05:50:23;99141.22;;;11.84;54.19
72428;BME280;60419;48.880;18.036;2023-05-11T05:53:09;99147.09;;;12.17;53.70
72428;BME280;60419;48.880;18.036;2023-05-11T05:55:54;99142.72;;;12.39;53.41
72428;BME280;60419;48.880;18.036;2023-05-11T05:58:40;99125.06;;;12.01;53.87
72428;BME280;60419;48.880;18.036;2023-05-11T06:01:25;99154.16;;;12.27;53.80
72428;BME280;60419;48.880;18.036;2023-05-11T06:04:12;99153.41;;;12.44;53.52
72428;BME280;60419;48.880;18.036;2023-05-11T06:06:57;99156.19;;;12.61;52.80
72428;BME280;60419;48.880;18.036;2023-05-11T06:09:44;99159.38;;;12.72;52.86
72428;BME280;60419;48.880;18.036;2023-05-11T06:12:29;99159.38;;;12.23;54.29
72428;BME280;60419;48.880;18.036;2023-05-11T06:15:15;99157.88;;;12.40;53.90
72428;BME280;60419;48.880;18.036;2023-05-11T06:18:00;99161.56;;;12.52;52.85
72428;BME280;60419;48.880;18.036;2023-05-11T06:20:46;99149.59;;;12.05;55.74
72428;BME280;60419;48.880;18.036;2023-05-11T06:23:32;99152.25;;;12.27;54.95
72428;BME280;60419;48.880;18.036;2023-05-11T06:26:17;99151.63;;;11.90;56.75
72428;BME280;60419;48.880;18.036;2023-05-11T06:29:03;99160.78;;;12.12;55.66
72428;BME280;60419;48.880;18.036;2023-05-11T06:31:48;99161.72;;;12.47;54.13
72428;BME280;60419;48.880;18.036;2023-05-11T06:34:36;99167.84;;;12.22;56.28
72428;BME280;60419;48.880;18.036;2023-05-11T06:37:23;99167.94;;;12.48;54.81
72428;BME280;60419;48.880;18.036;2023-05-11T06:40:08;99168.97;;;13.21;53.71
72428;BME280;60419;48.880;18.036;2023-05-11T06:42:54;99155.53;;;13.51;53.04
72428;BME280;60419;48.880;18.036;2023-05-11T06:45:39;99170.53;;;13.75;51.67
72428;BME280;60419;48.880;18.036;2023-05-11T06:48:25;99163.03;;;14.19;51.75
72428;BME280;60419;48.880;18.036;2023-05-11T06:51:13;99155.72;;;14.49;50.05
72428;BME280;60419;48.880;18.036;2023-05-11T06:53:59;99162.25;;;15.40;48.67
72428;BME280;60419;48.880;18.036;2023-05-11T06:56:45;99165.59;;;15.92;44.82
72428;BME280;60419;48.880;18.036;2023-05-11T06:59:30;99159.50;;;16.81;44.93
72428;BME280;60419;48.880;18.036;2023-05-11T07:02:16;99146.59;;;17.34;42.68
72428;BME280;60419;48.880;18.036;2023-05-11T07:05:02;99147.88;;;17.52;42.05
72428;BME280;60419;48.880;18.036;2023-05-11T07:07:47;99147.44;;;17.66;41.57
72428;BME280;60419;48.880;18.036;2023-05-11T07:10:33;99142.81;;;17.39;37.14
72428;BME280;60419;48.880;18.036;2023-05-11T07:13:18;99147.00;;;17.20;36.45
72428;BME280;60419;48.880;18.036;2023-05-11T07:16:03;99143.56;;;17.51;35.41
72428;BME280;60419;48.880;18.036;2023-05-11T07:18:49;99131.19;;;17.13;35.36
72428;BME280;60419;48.880;18.036;2023-05-11T07:21:35;99138.47;;;17.66;34.56
72428;BME280;60419;48.880;18.036;2023-05-11T07:24:20;99135.44;;;17.99;35.65
72428;BME280;60419;48.880;18.036;2023-05-11T07:27:05;99132.28;;;17.53;33.93
72428;BME280;60419;48.880;18.036;2023-05-11T07:29:51;99138.34;;;18.06;34.48
72428;BME280;60419;48.880;18.036;2023-05-11T07:32:36;99130.69;;;17.96;34.31
72428;BME280;60419;48.880;18.036;2023-05-11T07:35:22;99134.97;;;17.37;34.94
72428;BME280;60419;48.880;18.036;2023-05-11T07:38:08;99127.50;;;17.94;33.62
72428;BME280;60419;48.880;18.036;2023-05-11T07:40:55;99130.69;;;18.12;35.05
72428;BME280;60419;48.880;18.036;2023-05-11T07:43:41;99131.38;;;18.24;33.52
72428;BME280;60419;48.880;18.036;2023-05-11T07:46:27;99126.78;;;17.97;34.51
72428;BME280;60419;48.880;18.036;2023-05-11T07:49:12;99116.06;;;18.39;33.11
72428;BME280;60419;48.880;18.036;2023-05-11T07:51:57;99122.59;;;17.71;34.47
72428;BME280;60419;48.880;18.036;2023-05-11T07:54:43;99132.75;;;18.34;32.99
72428;BME280;60419;48.880;18.036;2023-05-11T07:57:29;99123.50;;;18.39;33.72
72428;BME280;60419;48.880;18.036;2023-05-11T08:00:14;99126.78;;;18.80;32.44
72428;BME280;60419;48.880;18.036;2023-05-11T08:03:00;99126.34;;;18.27;32.68
72428;BME280;60419;48.880;18.036;2023-05-11T08:05:46;99128.22;;;18.74;32.54
72428;BME280;60419;48.880;18.036;2023-05-11T08:08:31;99129.75;;;18.39;32.49
72428;BME280;60419;48.880;18.036;2023-05-11T08:11:16;99143.03;;;18.21;32.73
72428;BME280;60419;48.880;18.036;2023-05-11T08:14:02;99129.78;;;18.23;33.04
72428;BME280;60419;48.880;18.036;2023-05-11T08:16:47;99123.31;;;18.48;32.37
72428;BME280;60419;48.880;18.036;2023-05-11T08:19:33;99117.00;;;18.63;31.61
72428;BME280;60419;48.880;18.036;2023-05-11T08:22:19;99126.06;;;19.22;31.70
72428;BME280;60419;48.880;18.036;2023-05-11T08:25:04;99124.34;;;19.14;31.76
72428;BME280;60419;48.880;18.036;2023-05-11T08:27:50;99102.22;;;18.48;33.20
72428;BME280;60419;48.880;18.036;2023-05-11T08:30:35;99121.16;;;18.73;32.95
72428;BME280;60419;48.880;18.036;2023-05-11T08:33:21;99113.09;;;19.58;30.69
72428;BME280;60419;48.880;18.036;2023-05-11T08:36:07;99115.13;;;19.84;29.67
72428;BME280;60419;48.880;18.036;2023-05-11T08:38:52;99105.59;;;19.35;30.80
72428;BME280;60419;48.880;18.036;2023-05-11T08:41:38;99108.66;;;19.10;31.92
72428;BME280;60419;48.880;18.036;2023-05-11T08:44:25;99101.19;;;19.50;30.76
72428;BME280;60419;48.880;18.036;2023-05-11T08:47:11;99098.25;;;19.20;30.54
72428;BME280;60419;48.880;18.036;2023-05-11T08:49:56;99105.31;;;19.60;29.98
72428;BME280;60419;48.880;18.036;2023-05-11T08:52:42;99092.47;;;19.44;30.71
72428;BME280;60419;48.880;18.036;2023-05-11T08:55:28;99101.19;;;19.50;31.15
72428;BME280;60419;48.880;18.036;2023-05-11T08:58:16;99094.00;;;19.42;31.43
72428;BME280;60419;48.880;18.036;2023-05-11T09:01:05;99098.66;;;19.41;31.81
72428;BME280;60419;48.880;18.036;2023-05-11T09:03:51;99083.63;;;18.73;31.99
72428;BME280;60419;48.880;18.036;2023-05-11T09:06:37;99090.78;;;18.97;31.74
72428;BME280;60419;48.880;18.036;2023-05-11T09:09:24;99085.66;;;18.41;32.32
72428;BME280;60419;48.880;18.036;2023-05-11T09:12:10;99087.13;;;18.54;33.84
72428;BME280;60419;48.880;18.036;2023-05-11T09:14:56;99083.72;;;18.77;31.82
72428;BME280;60419;48.880;18.036;2023-05-11T09:17:41;99067.81;;;18.82;31.81
72428;BME280;60419;48.880;18.036;2023-05-11T09:20:28;99083.22;;;18.91;32.39
72428;BME280;60419;48.880;18.036;2023-05-11T09:23:16;99069.75;;;19.21;31.22
72428;BME280;60419;48.880;18.036;2023-05-11T09:26:01;99074.00;;;19.84;31.27
72428;BME280;60419;48.880;18.036;2023-05-11T09:28:52;99061.47;;;19.40;31.51
72428;BME280;60419;48.880;18.036;2023-05-11T09:31:45;99059.56;;;19.87;31.04
72428;BME280;60419;48.880;18.036;2023-05-11T09:34:31;99070.91;;;19.43;32.86
72428;BME280;60419;48.880;18.036;2023-05-11T09:37:17;99041.06;;;19.15;32.30
72428;BME280;60419;48.880;18.036;2023-05-11T09:40:03;99068.81;;;19.13;33.12
72428;BME280;60419;48.880;18.036;2023-05-11T09:42:49;99063.13;;;19.02;32.80
72428;BME280;60419;48.880;18.036;2023-05-11T09:45:45;99068.47;;;19.38;32.00
72428;BME280;60419;48.880;18.036;2023-05-11T09:48:31;99065.19;;;19.71;31.95
72428;BME280;60419;48.880;18.036;2023-05-11T09:51:27;99059.31;;;19.49;32.62
72428;BME280;60419;48.880;18.036;2023-05-11T09:54:18;99059.56;;;19.64;31.83
72428;BME280;60419;48.880;18.036;2023-05-11T09:57:04;99069.22;;;19.35;32.86
72428;BME280;60419;48.880;18.036;2023-05-11T09:59:49;99060.81;;;19.47;32.84
72428;BME280;60419;48.880;18.036;2023-05-11T10:02:35;99054.22;;;19.51;32.17
72428;BME280;60419;48.880;18.036;2023-05-11T10:05:21;99056.72;;;19.37;33.00
72428;BME280;60419;48.880;18.036;2023-05-11T10:08:07;99053.94;;;19.33;35.10
72428;BME280;60419;48.880;18.036;2023-05-11T10:10:53;99061.47;;;19.40;32.64
72428;BME280;60419;48.880;18.036;2023-05-11T10:13:42;99055.22;;;19.40;33.09
72428;BME280;60419;48.880;18.036;2023-05-11T10:16:29;99028.03;;;19.73;32.13
72428;BME280;60419;48.880;18.036;2023-05-11T10:19:16;99038.81;;;19.86;31.95
72428;BME280;60419;48.880;18.036;2023-05-11T10:22:04;99046.94;;;19.82;32.58
72428;BME280;60419;48.880;18.036;2023-05-11T10:24:49;99044.69;;;19.42;31.79
72428;BME280;60419;48.880;18.036;2023-05-11T10:27:36;99042.03;;;19.03;33.34
72428;BME280;60419;48.880;18.036;2023-05-11T10:30:22;99043.81;;;19.57;32.26
72428;BME280;60419;48.880;18.036;2023-05-11T10:33:08;99027.78;;;20.09;31.90
72428;BME280;60419;48.880;18.036;2023-05-11T10:35:55;99032.69;;;19.96;31.45
72428;BME280;60419;48.880;18.036;2023-05-11T10:38:41;99031.91;;;19.72;32.14
72428;BME280;60419;48.880;18.036;2023-05-11T10:44:26;99022.97;;;20.29;30.38
72428;BME280;60419;48.880;18.036;2023-05-11T10:47:21;99027.22;;;19.96;29.95
72428;BME280;60419;48.880;18.036;2023-05-11T10:50:15;99022.88;;;19.95;29.58
72428;BME280;60419;48.880;18.036;2023-05-11T10:59:43;99005.25;;;20.49;29.12
72428;BME280;60419;48.880;18.036;2023-05-11T11:02:30;99005.56;;;20.44;28.74
72428;BME280;60419;48.880;18.036;2023-05-11T11:05:31;98986.34;;;20.74;26.62
72428;BME280;60419;48.880;18.036;2023-05-11T11:08:17;98987.94;;;20.79;27.02
72428;BME280;60419;48.880;18.036;2023-05-11T11:11:29;98974.81;;;20.95;27.49
72428;BME280;60419;48.880;18.036;2023-05-11T11:14:17;98981.66;;;20.75;26.15
72428;BME280;60419;48.880;18.036;2023-05-11T11:20:02;98973.31;;;21.05;27.53
72428;BME280;60419;48.880;18.036;2023-05-11T11:22:51;98980.97;;;20.85;26.43
72428;BME280;60419;48.880;18.036;2023-05-11T11:25:50;98974.72;;;20.88;26.67
72428;BME280;60419;48.880;18.036;2023-05-11T11:31:39;98981.66;;;20.78;26.74
72428;BME280;60419;48.880;18.036;2023-05-11T11:37:14;98973.44;;;20.78;26.83
72428;BME280;60419;48.880;18.036;2023-05-11T11:40:00;98973.47;;;20.82;26.18
72428;BME280;60419;48.880;18.036;2023-05-11T11:42:48;98968.47;;;21.28;25.88
72428;BME280;60419;48.880;18.036;2023-05-11T11:45:35;98968.47;;;21.77;25.99
72428;BME280;60419;48.880;18.036;2023-05-11T11:48:30;98958.25;;;21.25;25.92
72428;BME280;60419;48.880;18.036;2023-05-11T11:51:17;98972.59;;;21.12;26.17
72428;BME280;60419;48.880;18.036;2023-05-11T11:54:02;98955.72;;;21.10;24.79
72428;BME280;60419;48.880;18.036;2023-05-11T11:56:48;98957.22;;;21.03;27.22
72428;BME280;60419;48.880;18.036;2023-05-11T11:59:44;98962.91;;;21.69;25.43
72428;BME280;60419;48.880;18.036;2023-05-11T12:02:32;98958.97;;;21.19;25.50
72428;BME280;60419;48.880;18.036;2023-05-11T12:05:18;98949.75;;;20.63;26.62
72428;BME280;60419;48.880;18.036;2023-05-11T12:08:05;98953.81;;;21.14;25.89
72428;BME280;60419;48.880;18.036;2023-05-11T12:10:54;98942.25;;;21.93;25.08
72428;BME280;60419;48.880;18.036;2023-05-11T12:13:41;98940.34;;;21.98;25.84
72428;BME280;60419;48.880;18.036;2023-05-11T12:16:28;98921.59;;;21.55;26.06
72428;BME280;60419;48.880;18.036;2023-05-11T12:19:22;98939.84;;;21.30;25.51
72428;BME280;60419;48.880;18.036;2023-05-11T12:22:08;98944.63;;;20.99;27.49
72428;BME280;60419;48.880;18.036;2023-05-11T12:24:55;98935.69;;;21.50;25.71
72428;BME280;60419;48.880;18.036;2023-05-11T12:27:50;98932.53;;;21.48;26.19
72428;BME280;60419;48.880;18.036;2023-05-11T12:30:36;98936.59;;;21.68;26.03
72428;BME280;60419;48.880;18.036;2023-05-11T12:33:21;98932.53;;;21.03;26.69
72428;BME280;60419;48.880;18.036;2023-05-11T12:36:07;98936.34;;;21.33;28.01
72428;BME280;60419;48.880;18.036;2023-05-11T12:38:53;98929.47;;;21.16;26.92
72428;BME280;60419;48.880;18.036;2023-05-11T12:41:42;98933.56;;;21.29;25.91
72428;BME280;60419;48.880;18.036;2023-05-11T12:44:27;98926.28;;;21.55;25.72
72428;BME280;60419;48.880;18.036;2023-05-11T12:47:13;98929.72;;;21.41;26.16
72428;BME280;60419;48.880;18.036;2023-05-11T12:50:00;98922.66;;;20.99;26.89
72428;BME280;60419;48.880;18.036;2023-05-11T12:52:46;98907.97;;;20.77;27.01
72428;BME280;60419;48.880;18.036;2023-05-11T12:55:33;98932.53;;;21.03;26.39
72428;BME280;60419;48.880;18.036;2023-05-11T12:58:18;98919.00;;;20.84;26.90
72428;BME280;60419;48.880;18.036;2023-05-11T13:01:05;98923.38;;;21.30;26.87
72428;BME280;60419;48.880;18.036;2023-05-11T13:03:50;98916.06;;;22.14;26.25
72428;BME280;60419;48.880;18.036;2023-05-11T13:06:36;98924.72;;;22.16;25.78
72428;BME280;60419;48.880;18.036;2023-05-11T13:09:23;98922.00;;;22.27;27.73
72428;BME280;60419;48.880;18.036;2023-05-11T13:12:16;98895.09;;;21.91;27.47
72428;BME280;60419;48.880;18.036;2023-05-11T13:15:09;98905.16;;;22.46;28.74
72428;BME280;60419;48.880;18.036;2023-05-11T13:17:59;98904.41;;;21.72;26.88
72428;BME280;60419;48.880;18.036;2023-05-11T13:20:45;98893.00;;;21.63;28.63
72428;BME280;60419;48.880;18.036;2023-05-11T13:23:30;98903.50;;;22.13;27.03
72428;BME280;60419;48.880;18.036;2023-05-11T13:26:24;98900.00;;;21.09;26.79
72428;BME280;60419;48.880;18.036;2023-05-11T13:29:09;98897.03;;;21.28;26.05
72428;BME280;60419;48.880;18.036;2023-05-11T13:31:55;98905.09;;;20.66;26.88
72428;BME280;60419;48.880;18.036;2023-05-11T13:34:40;98893.50;;;20.83;27.43
72428;BME280;60419;48.880;18.036;2023-05-11T13:37:25;98886.47;;;20.86;26.74
72428;BME280;60419;48.880;18.036;2023-05-11T13:40:11;98888.66;;;21.62;26.38
72428;BME280;60419;48.880;18.036;2023-05-11T13:42:57;98881.44;;;21.40;26.43
72428;BME280;60419;48.880;18.036;2023-05-11T13:45:42;98879.06;;;21.38;26.84
72428;BME280;60419;48.880;18.036;2023-05-11T13:48:27;98881.03;;;21.38;27.29
72428;BME280;60419;48.880;18.036;2023-05-11T13:51:13;98872.03;;;21.41;27.21
72428;BME280;60419;48.880;18.036;2023-05-11T13:53:59;98879.25;;;21.15;28.14
72428;BME280;60419;48.880;18.036;2023-05-11T13:56:44;98877.16;;;21.46;27.28
72428;BME280;60419;48.880;18.036;2023-05-11T13:59:30;98873.56;;;22.04;26.81
72428;BME280;60419;48.880;18.036;2023-05-11T14:02:15;98864.84;;;21.91;26.43
72428;BME280;60419;48.880;18.036;2023-05-11T14:05:01;98879.41;;;21.96;26.63
72428;BME280;60419;48.880;18.036;2023-05-11T14:07:46;98876.75;;;22.10;26.35
72428;BME280;60419;48.880;18.036;2023-05-11T14:10:31;98875.63;;;22.22;26.38
72428;BME280;60419;48.880;18.036;2023-05-11T14:13:17;98860.84;;;22.73;26.67
72428;BME280;60419;48.880;18.036;2023-05-11T14:16:04;98870.56;;;22.34;26.90
72428;BME280;60419;48.880;18.036;2023-05-11T14:18:49;98859.66;;;22.95;26.29
72428;BME280;60419;48.880;18.036;2023-05-11T14:21:35;98858.88;;;23.20;26.37
72428;BME280;60419;48.880;18.036;2023-05-11T14:24:20;98858.78;;;22.41;27.26
72428;BME280;60419;48.880;18.036;2023-05-11T14:27:06;98858.09;;;21.71;28.00
72428;BME280;60419;48.880;18.036;2023-05-11T14:29:53;98859.38;;;21.95;27.57
72428;BME280;60419;48.880;18.036;2023-05-11T14:32:38;98871.69;;;22.19;27.29
72428;BME280;60419;48.880;18.036;2023-05-11T14:35:24;98862.13;;;21.95;27.55
72428;BME280;60419;48.880;18.036;2023-05-11T14:38:09;98867.53;;;21.77;27.56
72428;BME280;60419;48.880;18.036;2023-05-11T14:40:54;98868.72;;;21.21;28.26
72428;BME280;60419;48.880;18.036;2023-05-11T14:43:40;98852.56;;;21.12;28.41
72428;BME280;60419;48.880;18.036;2023-05-11T14:46:25;98857.34;;;21.81;27.09
72428;BME280;60419;48.880;18.036;2023-05-11T14:49:11;98851.59;;;22.11;26.52
72428;BME280;60419;48.880;18.036;2023-05-11T14:51:57;98850.63;;;22.84;26.67
72428;BME280;60419;48.880;18.036;2023-05-11T14:54:43;98857.13;;;22.19;27.33
72428;BME280;60419;48.880;18.036;2023-05-11T14:57:28;98843.03;;;22.34;26.65
72428;BME280;60419;48.880;18.036;2023-05-11T15:00:14;98857.69;;;22.82;26.08
72428;BME280;60419;48.880;18.036;2023-05-11T15:03:00;98856.22;;;21.93;26.97
72428;BME280;60419;48.880;18.036;2023-05-11T15:05:45;98840.34;;;22.59;26.30